sensor_id;sensor_type;location;lat;lon;timestamp;P1;durP1;ratioP1;P2;durP2;ratioP2
78664;SDS011;67981;51.022;-2.870;2023-04-06T00:00:25;12.57;;;9.38;;
78664;SDS011;67981;51.022;-2.870;2023-04-06T00:02:51;22.67;;;16.58;;
78664;SDS011;67981;51.022;-2.870;2023-04-06T00:05:17;17.98;;;14.13;;
78664;SDS011;67981;51.022;-2.870;2023-04-06T00:07:43;10.30;;;8.52;;
78664;SDS011;67981;51.022;-2.870;2023-04-06T00:10:08;7.28;;;5.05;;
78664;SDS011;67981;51.022;-2.870;2023-04-06T00:12:34;6.45;;;4.95;;
78664;SDS011;67981;51.022;-2.870;2023-04-06T00:15:00;6.47;;;5.45;;
78664;SDS011;67981;51.022;-2.870;2023-04-06T00:17:26;6.82;;;5.90;;
78664;SDS011;67981;51.022;-2.870;2023-04-06T00:19:52;6.65;;;5.90;;
78664;SDS011;67981;51.022;-2.870;2023-04-06T00:22:17;13.75;;;10.80;;
78664;SDS011;67981;51.022;-2.870;2023-04-06T00:24:42;26.83;;;21.30;;
78664;SDS011;67981;51.022;-2.870;2023-04-06T00:27:08;11.38;;;8.23;;
78664;SDS011;67981;51.022;-2.870;2023-04-06T00:29:33;7.10;;;5.67;;
78664;SDS011;67981;51.022;-2.870;2023-04-06T00:31:58;5.50;;;4.30;;
78664;SDS011;67981;51.022;-2.870;2023-04-06T00:34:24;8.23;;;5.07;;
78664;SDS011;67981;51.022;-2.870;2023-04-06T00:36:49;8.20;;;5.10;;
78664;SDS011;67981;51.022;-2.870;2023-04-06T00:39:15;6.75;;;4.05;;
78664;SDS011;67981;51.022;-2.870;2023-04-06T00:41:41;7.13;;;4.35;;
78664;SDS011;67981;51.022;-2.870;2023-04-06T00:44:12;5.95;;;4.43;;
78664;SDS011;67981;51.022;-2.870;2023-04-06T00:46:37;6.47;;;4.45;;
78664;SDS011;67981;51.022;-2.870;2023-04-06T00:49:03;14.73;;;10.90;;
78664;SDS011;67981;51.022;-2.870;2023-04-06T00:51:28;14.30;;;10.93;;
78664;SDS011;67981;51.022;-2.870;2023-04-06T00:53:54;12.90;;;9.38;;
78664;SDS011;67981;51.022;-2.870;2023-04-06T00:56:19;10.85;;;8.25;;
78664;SDS011;67981;51.022;-2.870;2023-04-06T00:58:46;9.68;;;7.18;;
78664;SDS011;67981;51.022;-2.870;2023-04-06T01:01:11;8.35;;;6.20;;
78664;SDS011;67981;51.022;-2.870;2023-04-06T01:03:37;7.30;;;5.90;;
78664;SDS011;67981;51.022;-2.870;2023-04-06T01:06:02;8.20;;;5.72;;
78664;SDS011;67981;51.022;-2.870;2023-04-06T01:08:27;6.50;;;5.18;;
78664;SDS011;67981;51.022;-2.870;2023-04-06T01:10:53;7.90;;;5.55;;
78664;SDS011;67981;51.022;-2.870;2023-04-06T01:13:19;5.13;;;3.92;;
78664;SDS011;67981;51.022;-2.870;2023-04-06T01:15:45;6.75;;;4.88;;
78664;SDS011;67981;51.022;-2.870;2023-04-06T01:18:11;6.57;;;5.40;;
78664;SDS011;67981;51.022;-2.870;2023-04-06T01:20:36;6.85;;;5.28;;
78664;SDS011;67981;51.022;-2.870;2023-04-06T01:23:02;6.97;;;5.00;;
78664;SDS011;67981;51.022;-2.870;2023-04-06T01:25:27;7.17;;;4.70;;
78664;SDS011;67981;51.022;-2.870;2023-04-06T01:27:53;6.72;;;5.28;;
78664;SDS011;67981;51.022;-2.870;2023-04-06T01:30:18;7.40;;;5.85;;
78664;SDS011;67981;51.022;-2.870;2023-04-06T01:32:44;7.72;;;5.28;;
78664;SDS011;67981;51.022;-2.870;2023-04-06T01:35:09;8.35;;;4.47;;
78664;SDS011;67981;51.022;-2.870;2023-04-06T01:37:35;7.28;;;4.60;;
78664;SDS011;67981;51.022;-2.870;2023-04-06T01:40:02;6.85;;;4.63;;
78664;SDS011;67981;51.022;-2.870;2023-04-06T01:42:27;6.47;;;4.38;;
78664;SDS011;67981;51.022;-2.870;2023-04-06T01:44:53;5.90;;;3.88;;
78664;SDS011;67981;51.022;-2.870;2023-04-06T01:47:18;5.90;;;4.20;;
78664;SDS011;67981;51.022;-2.870;2023-04-06T01:49:43;6.33;;;4.50;;
78664;SDS011;67981;51.022;-2.870;2023-04-06T01:52:09;5.80;;;4.13;;
78664;SDS011;67981;51.022;-2.870;2023-04-06T01:54:34;7.75;;;4.57;;
78664;SDS011;67981;51.022;-2.870;2023-04-06T01:57:00;7.47;;;4.50;;
78664;SDS011;67981;51.022;-2.870;2023-04-06T01:59:25;6.13;;;3.78;;
78664;SDS011;67981;51.022;-2.870;2023-04-06T02:01:51;4.68;;;3.08;;
78664;SDS011;67981;51.022;-2.870;2023-04-06T02:04:16;5.57;;;2.92;;
78664;SDS011;67981;51.022;-2.870;2023-04-06T02:06:41;5.55;;;4.03;;
78664;SDS011;67981;51.022;-2.870;2023-04-06T02:09:07;4.90;;;2.88;;
78664;SDS011;67981;51.022;-2.870;2023-04-06T02:11:32;6.00;;;3.28;;
78664;SDS011;67981;51.022;-2.870;2023-04-06T02:13:57;6.07;;;3.30;;
78664;SDS011;67981;51.022;-2.870;2023-04-06T02:16:25;4.40;;;3.03;;
78664;SDS011;67981;51.022;-2.870;2023-04-06T02:18:50;3.33;;;2.33;;
78664;SDS011;67981;51.022;-2.870;2023-04-06T02:21:16;4.57;;;2.67;;
78664;SDS011;67981;51.022;-2.870;2023-04-06T02:23:45;3.42;;;2.38;;
78664;SDS011;67981;51.022;-2.870;2023-04-06T02:26:10;3.58;;;1.80;;
78664;SDS011;67981;51.022;-2.870;2023-04-06T02:28:36;2.63;;;1.43;;
78664;SDS011;67981;51.022;-2.870;2023-04-06T02:31:01;2.88;;;1.40;;
78664;SDS011;67981;51.022;-2.870;2023-04-06T02:33:27;2.78;;;1.33;;
78664;SDS011;67981;51.022;-2.870;2023-04-06T02:35:52;2.28;;;1.52;;
78664;SDS011;67981;51.022;-2.870;2023-04-06T02:38:17;1.90;;;1.03;;
78664;SDS011;67981;51.022;-2.870;2023-04-06T02:40:43;2.43;;;1.03;;
78664;SDS011;67981;51.022;-2.870;2023-04-06T02:43:08;3.92;;;1.13;;
78664;SDS011;67981;51.022;-2.870;2023-04-06T02:45:33;8.30;;;2.17;;
78664;SDS011;67981;51.022;-2.870;2023-04-06T02:47:59;3.00;;;0.90;;
78664;SDS011;67981;51.022;-2.870;2023-04-06T02:50:24;2.35;;;0.88;;
78664;SDS011;67981;51.022;-2.870;2023-04-06T02:52:52;3.63;;;1.30;;
78664;SDS011;67981;51.022;-2.870;2023-04-06T02:55:18;6.35;;;1.38;;
78664;SDS011;67981;51.022;-2.870;2023-04-06T02:57:44;4.90;;;1.20;;
78664;SDS011;67981;51.022;-2.870;2023-04-06T03:00:10;4.45;;;1.10;;
78664;SDS011;67981;51.022;-2.870;2023-04-06T03:02:36;2.80;;;1.55;;
78664;SDS011;67981;51.022;-2.870;2023-04-06T03:05:01;3.55;;;1.20;;
78664;SDS011;67981;51.022;-2.870;2023-04-06T03:07:28;3.10;;;1.15;;
78664;SDS011;67981;51.022;-2.870;2023-04-06T03:09:53;4.13;;;1.00;;
78664;SDS011;67981;51.022;-2.870;2023-04-06T03:12:19;3.38;;;0.93;;
78664;SDS011;67981;51.022;-2.870;2023-04-06T03:14:45;6.25;;;1.10;;
78664;SDS011;67981;51.022;-2.870;2023-04-06T03:17:10;5.35;;;1.50;;
78664;SDS011;67981;51.022;-2.870;2023-04-06T03:19:36;6.57;;;1.27;;
78664;SDS011;67981;51.022;-2.870;2023-04-06T03:22:01;5.50;;;1.33;;
78664;SDS011;67981;51.022;-2.870;2023-04-06T03:24:27;7.07;;;1.27;;
78664;SDS011;67981;51.022;-2.870;2023-04-06T03:26:52;6.65;;;1.70;;
78664;SDS011;67981;51.022;-2.870;2023-04-06T03:29:17;11.63;;;1.88;;
78664;SDS011;67981;51.022;-2.870;2023-04-06T03:31:43;7.07;;;1.95;;
78664;SDS011;67981;51.022;-2.870;2023-04-06T03:34:08;5.10;;;1.67;;
78664;SDS011;67981;51.022;-2.870;2023-04-06T03:36:34;4.95;;;1.60;;
78664;SDS011;67981;51.022;-2.870;2023-04-06T03:39:00;4.93;;;3.38;;
78664;SDS011;67981;51.022;-2.870;2023-04-06T03:41:25;7.03;;;1.80;;
78664;SDS011;67981;51.022;-2.870;2023-04-06T03:43:51;9.82;;;2.55;;
78664;SDS011;67981;51.022;-2.870;2023-04-06T03:46:16;9.77;;;1.90;;
78664;SDS011;67981;51.022;-2.870;2023-04-06T03:48:42;10.93;;;2.30;;
78664;SDS011;67981;51.022;-2.870;2023-04-06T03:51:07;11.15;;;1.70;;
78664;SDS011;67981;51.022;-2.870;2023-04-06T03:53:32;6.72;;;1.85;;
78664;SDS011;67981;51.022;-2.870;2023-04-06T03:55:58;10.63;;;2.03;;
78664;SDS011;67981;51.022;-2.870;2023-04-06T03:58:23;9.53;;;1.70;;
78664;SDS011;67981;51.022;-2.870;2023-04-06T04:00:48;9.20;;;1.80;;
78664;SDS011;67981;51.022;-2.870;2023-04-06T04:03:14;8.07;;;2.58;;
78664;SDS011;67981;51.022;-2.870;2023-04-06T04:05:39;7.43;;;2.40;;
78664;SDS011;67981;51.022;-2.870;2023-04-06T04:08:05;9.32;;;2.35;;
78664;SDS011;67981;51.022;-2.870;2023-04-06T04:10:30;5.85;;;2.75;;
78664;SDS011;67981;51.022;-2.870;2023-04-06T04:12:56;6.55;;;2.42;;
78664;SDS011;67981;51.022;-2.870;2023-04-06T04:15:21;12.03;;;3.30;;
78664;SDS011;67981;51.022;-2.870;2023-04-06T04:17:46;4.60;;;1.85;;
78664;SDS011;67981;51.022;-2.870;2023-04-06T04:20:14;10.70;;;2.03;;
78664;SDS011;67981;51.022;-2.870;2023-04-06T04:22:40;8.48;;;2.03;;
78664;SDS011;67981;51.022;-2.870;2023-04-06T04:25:05;8.88;;;2.35;;
78664;SDS011;67981;51.022;-2.870;2023-04-06T04:27:31;12.35;;;2.08;;
78664;SDS011;67981;51.022;-2.870;2023-04-06T04:29:56;13.37;;;2.63;;
78664;SDS011;67981;51.022;-2.870;2023-04-06T04:32:22;5.95;;;2.53;;
78664;SDS011;67981;51.022;-2.870;2023-04-06T04:34:47;8.32;;;3.10;;
78664;SDS011;67981;51.022;-2.870;2023-04-06T04:37:12;12.20;;;3.67;;
78664;SDS011;67981;51.022;-2.870;2023-04-06T04:39:38;10.10;;;2.92;;
78664;SDS011;67981;51.022;-2.870;2023-04-06T04:42:03;13.55;;;3.20;;
78664;SDS011;67981;51.022;-2.870;2023-04-06T04:44:28;10.73;;;3.00;;
78664;SDS011;67981;51.022;-2.870;2023-04-06T04:46:54;10.10;;;2.63;;
78664;SDS011;67981;51.022;-2.870;2023-04-06T04:49:19;10.70;;;2.97;;
78664;SDS011;67981;51.022;-2.870;2023-04-06T04:51:44;11.65;;;2.80;;
78664;SDS011;67981;51.022;-2.870;2023-04-06T04:54:10;7.65;;;2.40;;
78664;SDS011;67981;51.022;-2.870;2023-04-06T04:56:35;14.70;;;3.13;;
78664;SDS011;67981;51.022;-2.870;2023-04-06T04:59:01;12.77;;;2.60;;
78664;SDS011;67981;51.022;-2.870;2023-04-06T05:01:26;8.98;;;2.67;;
78664;SDS011;67981;51.022;-2.870;2023-04-06T05:03:51;11.90;;;3.20;;
78664;SDS011;67981;51.022;-2.870;2023-04-06T05:06:17;10.07;;;3.22;;
78664;SDS011;67981;51.022;-2.870;2023-04-06T05:08:44;11.25;;;3.97;;
78664;SDS011;67981;51.022;-2.870;2023-04-06T05:11:09;10.38;;;3.53;;
78664;SDS011;67981;51.022;-2.870;2023-04-06T05:13:35;15.77;;;3.38;;
78664;SDS011;67981;51.022;-2.870;2023-04-06T05:16:00;8.95;;;2.95;;
78664;SDS011;67981;51.022;-2.870;2023-04-06T05:18:26;13.55;;;3.95;;
78664;SDS011;67981;51.022;-2.870;2023-04-06T05:20:52;9.55;;;2.25;;
78664;SDS011;67981;51.022;-2.870;2023-04-06T05:23:17;12.63;;;3.88;;
78664;SDS011;67981;51.022;-2.870;2023-04-06T05:25:43;8.38;;;2.60;;
78664;SDS011;67981;51.022;-2.870;2023-04-06T05:28:08;9.95;;;2.40;;
78664;SDS011;67981;51.022;-2.870;2023-04-06T05:30:33;11.90;;;2.85;;
78664;SDS011;67981;51.022;-2.870;2023-04-06T05:33:00;13.60;;;3.10;;
78664;SDS011;67981;51.022;-2.870;2023-04-06T05:35:26;9.68;;;2.75;;
78664;SDS011;67981;51.022;-2.870;2023-04-06T05:37:51;12.00;;;3.57;;
78664;SDS011;67981;51.022;-2.870;2023-04-06T05:40:17;11.43;;;3.20;;
78664;SDS011;67981;51.022;-2.870;2023-04-06T05:42:42;13.05;;;2.67;;
78664;SDS011;67981;51.022;-2.870;2023-04-06T05:45:08;9.70;;;3.03;;
78664;SDS011;67981;51.022;-2.870;2023-04-06T05:47:44;5.50;;;2.78;;
78664;SDS011;67981;51.022;-2.870;2023-04-06T05:50:10;7.43;;;2.58;;
78664;SDS011;67981;51.022;-2.870;2023-04-06T05:52:37;10.30;;;3.17;;
78664;SDS011;67981;51.022;-2.870;2023-04-06T05:55:02;12.43;;;2.88;;
78664;SDS011;67981;51.022;-2.870;2023-04-06T05:57:28;9.07;;;2.35;;
78664;SDS011;67981;51.022;-2.870;2023-04-06T05:59:54;15.23;;;3.50;;
78664;SDS011;67981;51.022;-2.870;2023-04-06T06:02:20;14.90;;;2.40;;
78664;SDS011;67981;51.022;-2.870;2023-04-06T06:04:46;12.38;;;2.70;;
78664;SDS011;67981;51.022;-2.870;2023-04-06T06:07:11;9.77;;;2.75;;
78664;SDS011;67981;51.022;-2.870;2023-04-06T06:09:37;9.45;;;3.15;;
78664;SDS011;67981;51.022;-2.870;2023-04-06T06:12:02;8.63;;;2.17;;
78664;SDS011;67981;51.022;-2.870;2023-04-06T06:14:27;12.07;;;2.15;;
78664;SDS011;67981;51.022;-2.870;2023-04-06T06:16:53;9.45;;;2.72;;
78664;SDS011;67981;51.022;-2.870;2023-04-06T06:19:19;8.82;;;2.65;;
78664;SDS011;67981;51.022;-2.870;2023-04-06T06:21:44;16.58;;;3.40;;
78664;SDS011;67981;51.022;-2.870;2023-04-06T06:24:10;6.20;;;2.33;;
78664;SDS011;67981;51.022;-2.870;2023-04-06T06:26:35;9.75;;;2.80;;
78664;SDS011;67981;51.022;-2.870;2023-04-06T06:29:02;9.93;;;4.00;;
78664;SDS011;67981;51.022;-2.870;2023-04-06T06:31:30;13.80;;;3.15;;
78664;SDS011;67981;51.022;-2.870;2023-04-06T06:33:55;11.85;;;2.80;;
78664;SDS011;67981;51.022;-2.870;2023-04-06T06:36:21;13.48;;;2.67;;
78664;SDS011;67981;51.022;-2.870;2023-04-06T06:38:46;8.20;;;2.80;;
78664;SDS011;67981;51.022;-2.870;2023-04-06T06:41:11;14.80;;;3.57;;
78664;SDS011;67981;51.022;-2.870;2023-04-06T06:43:37;14.82;;;4.88;;
78664;SDS011;67981;51.022;-2.870;2023-04-06T06:46:02;13.88;;;3.33;;
78664;SDS011;67981;51.022;-2.870;2023-04-06T06:48:29;6.78;;;2.60;;
78664;SDS011;67981;51.022;-2.870;2023-04-06T06:50:54;11.57;;;3.58;;
78664;SDS011;67981;51.022;-2.870;2023-04-06T06:53:20;13.20;;;4.20;;
78664;SDS011;67981;51.022;-2.870;2023-04-06T06:55:46;11.90;;;3.65;;
78664;SDS011;67981;51.022;-2.870;2023-04-06T06:58:11;13.27;;;3.40;;
78664;SDS011;67981;51.022;-2.870;2023-04-06T07:00:37;8.95;;;2.83;;
78664;SDS011;67981;51.022;-2.870;2023-04-06T07:03:02;8.60;;;2.50;;
78664;SDS011;67981;51.022;-2.870;2023-04-06T07:05:27;9.88;;;3.97;;
78664;SDS011;67981;51.022;-2.870;2023-04-06T07:07:53;18.48;;;3.03;;
78664;SDS011;67981;51.022;-2.870;2023-04-06T07:10:19;18.30;;;3.58;;
78664;SDS011;67981;51.022;-2.870;2023-04-06T07:12:45;13.48;;;3.50;;
78664;SDS011;67981;51.022;-2.870;2023-04-06T07:15:11;14.20;;;4.63;;
78664;SDS011;67981;51.022;-2.870;2023-04-06T07:17:36;15.10;;;3.75;;
78664;SDS011;67981;51.022;-2.870;2023-04-06T07:20:01;11.52;;;3.10;;
78664;SDS011;67981;51.022;-2.870;2023-04-06T07:22:27;11.93;;;3.10;;
78664;SDS011;67981;51.022;-2.870;2023-04-06T07:24:52;14.85;;;3.10;;
78664;SDS011;67981;51.022;-2.870;2023-04-06T07:27:18;10.05;;;2.92;;
78664;SDS011;67981;51.022;-2.870;2023-04-06T07:29:43;11.88;;;3.83;;
78664;SDS011;67981;51.022;-2.870;2023-04-06T07:32:09;10.50;;;2.58;;
78664;SDS011;67981;51.022;-2.870;2023-04-06T07:34:35;12.93;;;3.80;;
78664;SDS011;67981;51.022;-2.870;2023-04-06T07:37:00;11.48;;;2.42;;
78664;SDS011;67981;51.022;-2.870;2023-04-06T07:39:26;16.58;;;3.75;;
78664;SDS011;67981;51.022;-2.870;2023-04-06T07:41:52;9.77;;;3.22;;
78664;SDS011;67981;51.022;-2.870;2023-04-06T07:44:17;12.60;;;2.88;;
78664;SDS011;67981;51.022;-2.870;2023-04-06T07:46:43;10.57;;;2.85;;
78664;SDS011;67981;51.022;-2.870;2023-04-06T07:49:08;11.57;;;3.28;;
78664;SDS011;67981;51.022;-2.870;2023-04-06T07:51:35;9.73;;;2.88;;
78664;SDS011;67981;51.022;-2.870;2023-04-06T07:54:02;12.35;;;2.55;;
78664;SDS011;67981;51.022;-2.870;2023-04-06T07:56:27;14.07;;;4.22;;
78664;SDS011;67981;51.022;-2.870;2023-04-06T07:58:52;13.43;;;3.45;;
78664;SDS011;67981;51.022;-2.870;2023-04-06T08:01:21;10.07;;;2.55;;
78664;SDS011;67981;51.022;-2.870;2023-04-06T08:03:46;10.20;;;2.40;;
78664;SDS011;67981;51.022;-2.870;2023-04-06T08:06:12;14.65;;;3.58;;
78664;SDS011;67981;51.022;-2.870;2023-04-06T08:08:37;10.40;;;2.35;;
78664;SDS011;67981;51.022;-2.870;2023-04-06T08:11:03;11.13;;;2.40;;
78664;SDS011;67981;51.022;-2.870;2023-04-06T08:13:28;8.02;;;2.80;;
78664;SDS011;67981;51.022;-2.870;2023-04-06T08:15:53;13.82;;;3.35;;
78664;SDS011;67981;51.022;-2.870;2023-04-06T08:18:19;8.60;;;2.85;;
78664;SDS011;67981;51.022;-2.870;2023-04-06T08:20:44;8.07;;;3.05;;
78664;SDS011;67981;51.022;-2.870;2023-04-06T08:23:10;10.45;;;2.33;;
78664;SDS011;67981;51.022;-2.870;2023-04-06T08:25:36;7.45;;;2.20;;
78664;SDS011;67981;51.022;-2.870;2023-04-06T08:28:02;7.88;;;2.63;;
78664;SDS011;67981;51.022;-2.870;2023-04-06T08:30:28;11.75;;;2.35;;
78664;SDS011;67981;51.022;-2.870;2023-04-06T08:32:54;9.75;;;2.65;;
78664;SDS011;67981;51.022;-2.870;2023-04-06T08:35:19;10.88;;;2.00;;
78664;SDS011;67981;51.022;-2.870;2023-04-06T08:37:45;6.53;;;2.30;;
78664;SDS011;67981;51.022;-2.870;2023-04-06T08:40:11;10.02;;;2.90;;
78664;SDS011;67981;51.022;-2.870;2023-04-06T08:42:39;9.48;;;1.90;;
78664;SDS011;67981;51.022;-2.870;2023-04-06T08:45:08;13.02;;;2.65;;
78664;SDS011;67981;51.022;-2.870;2023-04-06T08:47:35;7.22;;;2.05;;
78664;SDS011;67981;51.022;-2.870;2023-04-06T08:50:03;13.10;;;4.95;;
78664;SDS011;67981;51.022;-2.870;2023-04-06T08:52:29;9.10;;;2.67;;
78664;SDS011;67981;51.022;-2.870;2023-04-06T08:54:56;8.95;;;2.72;;
78664;SDS011;67981;51.022;-2.870;2023-04-06T08:57:22;7.05;;;2.08;;
78664;SDS011;67981;51.022;-2.870;2023-04-06T08:59:48;7.65;;;2.00;;
78664;SDS011;67981;51.022;-2.870;2023-04-06T09:02:16;10.80;;;2.97;;
78664;SDS011;67981;51.022;-2.870;2023-04-06T09:04:43;6.88;;;2.10;;
78664;SDS011;67981;51.022;-2.870;2023-04-06T09:07:17;5.53;;;1.60;;
78664;SDS011;67981;51.022;-2.870;2023-04-06T09:09:43;7.18;;;1.92;;
78664;SDS011;67981;51.022;-2.870;2023-04-06T09:12:25;7.95;;;1.70;;
78664;SDS011;67981;51.022;-2.870;2023-04-06T09:14:51;3.85;;;1.70;;
78664;SDS011;67981;51.022;-2.870;2023-04-06T09:17:24;5.13;;;1.70;;
78664;SDS011;67981;51.022;-2.870;2023-04-06T09:19:57;4.30;;;1.52;;
78664;SDS011;67981;51.022;-2.870;2023-04-06T09:22:24;4.88;;;1.33;;
78664;SDS011;67981;51.022;-2.870;2023-04-06T09:24:51;9.70;;;1.88;;
78664;SDS011;67981;51.022;-2.870;2023-04-06T09:27:17;4.75;;;1.63;;
78664;SDS011;67981;51.022;-2.870;2023-04-06T09:30:01;5.30;;;1.50;;
78664;SDS011;67981;51.022;-2.870;2023-04-06T09:32:32;6.65;;;2.58;;
78664;SDS011;67981;51.022;-2.870;2023-04-06T09:35:07;4.60;;;1.70;;
78664;SDS011;67981;51.022;-2.870;2023-04-06T09:37:33;6.55;;;1.40;;
78664;SDS011;67981;51.022;-2.870;2023-04-06T09:40:03;10.38;;;2.05;;
78664;SDS011;67981;51.022;-2.870;2023-04-06T09:42:30;6.80;;;1.83;;
78664;SDS011;67981;51.022;-2.870;2023-04-06T09:44:55;6.45;;;1.67;;
78664;SDS011;67981;51.022;-2.870;2023-04-06T09:47:21;11.07;;;2.40;;
78664;SDS011;67981;51.022;-2.870;2023-04-06T09:49:48;9.30;;;2.00;;
78664;SDS011;67981;51.022;-2.870;2023-04-06T09:52:15;6.57;;;1.95;;
78664;SDS011;67981;51.022;-2.870;2023-04-06T09:54:43;6.75;;;2.50;;
78664;SDS011;67981;51.022;-2.870;2023-04-06T09:57:15;8.10;;;2.40;;
78664;SDS011;67981;51.022;-2.870;2023-04-06T10:02:56;6.85;;;2.03;;
78664;SDS011;67981;51.022;-2.870;2023-04-06T10:05:27;9.75;;;2.13;;
78664;SDS011;67981;51.022;-2.870;2023-04-06T10:07:55;5.57;;;2.10;;
78664;SDS011;67981;51.022;-2.870;2023-04-06T10:10:25;11.32;;;2.72;;
78664;SDS011;67981;51.022;-2.870;2023-04-06T10:12:50;8.73;;;2.95;;
78664;SDS011;67981;51.022;-2.870;2023-04-06T10:15:16;16.92;;;3.00;;
78664;SDS011;67981;51.022;-2.870;2023-04-06T10:17:42;8.27;;;2.30;;
78664;SDS011;67981;51.022;-2.870;2023-04-06T10:20:09;7.22;;;2.58;;
78664;SDS011;67981;51.022;-2.870;2023-04-06T10:25:28;7.60;;;1.85;;
78664;SDS011;67981;51.022;-2.870;2023-04-06T10:28:01;9.05;;;3.00;;
78664;SDS011;67981;51.022;-2.870;2023-04-06T10:30:29;6.65;;;1.88;;
78664;SDS011;67981;51.022;-2.870;2023-04-06T10:32:56;8.98;;;2.30;;
78664;SDS011;67981;51.022;-2.870;2023-04-06T10:35:21;7.30;;;1.63;;
78664;SDS011;67981;51.022;-2.870;2023-04-06T10:37:53;7.85;;;2.45;;
78664;SDS011;67981;51.022;-2.870;2023-04-06T10:40:25;5.93;;;1.77;;
78664;SDS011;67981;51.022;-2.870;2023-04-06T10:42:51;3.90;;;1.52;;
78664;SDS011;67981;51.022;-2.870;2023-04-06T10:45:19;4.93;;;1.73;;
78664;SDS011;67981;51.022;-2.870;2023-04-06T10:47:46;5.30;;;1.50;;
78664;SDS011;67981;51.022;-2.870;2023-04-06T10:50:12;5.17;;;1.33;;
78664;SDS011;67981;51.022;-2.870;2023-04-06T10:52:44;5.30;;;1.60;;
78664;SDS011;67981;51.022;-2.870;2023-04-06T10:55:11;4.13;;;1.52;;
78664;SDS011;67981;51.022;-2.870;2023-04-06T10:57:38;4.90;;;2.03;;
78664;SDS011;67981;51.022;-2.870;2023-04-06T11:00:06;5.03;;;1.77;;
78664;SDS011;67981;51.022;-2.870;2023-04-06T11:02:33;6.07;;;1.52;;
78664;SDS011;67981;51.022;-2.870;2023-04-06T11:05:00;5.20;;;1.35;;
78664;SDS011;67981;51.022;-2.870;2023-04-06T11:07:26;6.35;;;1.88;;
78664;SDS011;67981;51.022;-2.870;2023-04-06T11:09:54;8.15;;;1.80;;
78664;SDS011;67981;51.022;-2.870;2023-04-06T11:12:23;7.43;;;1.52;;
78664;SDS011;67981;51.022;-2.870;2023-04-06T11:14:59;5.90;;;1.70;;
78664;SDS011;67981;51.022;-2.870;2023-04-06T11:17:31;4.75;;;2.22;;
78664;SDS011;67981;51.022;-2.870;2023-04-06T11:19:57;4.03;;;1.80;;
78664;SDS011;67981;51.022;-2.870;2023-04-06T11:22:23;10.02;;;2.28;;
78664;SDS011;67981;51.022;-2.870;2023-04-06T11:24:50;4.18;;;1.65;;
78664;SDS011;67981;51.022;-2.870;2023-04-06T11:27:15;9.65;;;2.00;;
78664;SDS011;67981;51.022;-2.870;2023-04-06T11:29:41;3.90;;;1.73;;
78664;SDS011;67981;51.022;-2.870;2023-04-06T11:32:07;2.72;;;1.27;;
78664;SDS011;67981;51.022;-2.870;2023-04-06T11:34:34;3.88;;;1.33;;
78664;SDS011;67981;51.022;-2.870;2023-04-06T11:37:02;5.28;;;1.30;;
78664;SDS011;67981;51.022;-2.870;2023-04-06T11:39:42;3.30;;;1.23;;
78664;SDS011;67981;51.022;-2.870;2023-04-06T11:42:13;5.18;;;1.60;;
78664;SDS011;67981;51.022;-2.870;2023-04-06T11:44:52;4.68;;;1.58;;
78664;SDS011;67981;51.022;-2.870;2023-04-06T11:47:19;8.05;;;2.72;;
78664;SDS011;67981;51.022;-2.870;2023-04-06T11:49:48;9.68;;;1.55;;
78664;SDS011;67981;51.022;-2.870;2023-04-06T11:52:14;3.00;;;0.85;;
78664;SDS011;67981;51.022;-2.870;2023-04-06T11:54:41;7.35;;;1.15;;
78664;SDS011;67981;51.022;-2.870;2023-04-06T11:57:07;4.63;;;1.45;;
78664;SDS011;67981;51.022;-2.870;2023-04-06T11:59:33;3.50;;;1.55;;
78664;SDS011;67981;51.022;-2.870;2023-04-06T12:02:02;5.05;;;1.48;;
78664;SDS011;67981;51.022;-2.870;2023-04-06T12:04:28;3.50;;;1.20;;
78664;SDS011;67981;51.022;-2.870;2023-04-06T12:06:54;5.15;;;2.03;;
78664;SDS011;67981;51.022;-2.870;2023-04-06T12:09:20;3.42;;;1.08;;
78664;SDS011;67981;51.022;-2.870;2023-04-06T12:11:46;2.83;;;1.10;;
78664;SDS011;67981;51.022;-2.870;2023-04-06T12:14:12;3.67;;;1.20;;
78664;SDS011;67981;51.022;-2.870;2023-04-06T12:16:38;6.65;;;1.10;;
78664;SDS011;67981;51.022;-2.870;2023-04-06T12:19:03;3.28;;;1.00;;
78664;SDS011;67981;51.022;-2.870;2023-04-06T12:21:32;3.38;;;0.85;;
78664;SDS011;67981;51.022;-2.870;2023-04-06T12:24:00;4.50;;;1.00;;
78664;SDS011;67981;51.022;-2.870;2023-04-06T12:26:26;6.70;;;1.33;;
78664;SDS011;67981;51.022;-2.870;2023-04-06T12:28:52;3.88;;;1.33;;
78664;SDS011;67981;51.022;-2.870;2023-04-06T12:31:18;4.88;;;1.67;;
78664;SDS011;67981;51.022;-2.870;2023-04-06T12:33:48;4.15;;;1.20;;
78664;SDS011;67981;51.022;-2.870;2023-04-06T12:36:15;6.28;;;1.70;;
78664;SDS011;67981;51.022;-2.870;2023-04-06T12:38:44;6.63;;;1.58;;
78664;SDS011;67981;51.022;-2.870;2023-04-06T12:41:10;5.75;;;2.42;;
78664;SDS011;67981;51.022;-2.870;2023-04-06T12:43:36;3.88;;;1.40;;
78664;SDS011;67981;51.022;-2.870;2023-04-06T12:46:02;4.88;;;1.00;;
78664;SDS011;67981;51.022;-2.870;2023-04-06T12:48:27;3.13;;;0.90;;
78664;SDS011;67981;51.022;-2.870;2023-04-06T12:50:59;5.47;;;1.35;;
78664;SDS011;67981;51.022;-2.870;2023-04-06T12:53:26;2.03;;;1.00;;
78664;SDS011;67981;51.022;-2.870;2023-04-06T12:55:52;1.80;;;0.70;;
78664;SDS011;67981;51.022;-2.870;2023-04-06T12:58:19;1.90;;;1.17;;
78664;SDS011;67981;51.022;-2.870;2023-04-06T13:00:45;1.63;;;0.70;;
78664;SDS011;67981;51.022;-2.870;2023-04-06T13:03:10;1.88;;;0.63;;
78664;SDS011;67981;51.022;-2.870;2023-04-06T13:05:36;3.97;;;0.90;;
78664;SDS011;67981;51.022;-2.870;2023-04-06T13:08:09;2.72;;;0.73;;
78664;SDS011;67981;51.022;-2.870;2023-04-06T13:10:35;2.58;;;0.90;;
78664;SDS011;67981;51.022;-2.870;2023-04-06T13:13:00;1.65;;;0.80;;
78664;SDS011;67981;51.022;-2.870;2023-04-06T13:15:25;3.30;;;0.88;;
78664;SDS011;67981;51.022;-2.870;2023-04-06T13:17:51;2.97;;;0.95;;
78664;SDS011;67981;51.022;-2.870;2023-04-06T13:20:16;1.97;;;0.67;;
78664;SDS011;67981;51.022;-2.870;2023-04-06T13:22:42;3.17;;;0.68;;
78664;SDS011;67981;51.022;-2.870;2023-04-06T13:25:07;1.65;;;0.70;;
78664;SDS011;67981;51.022;-2.870;2023-04-06T13:27:33;1.52;;;0.50;;
78664;SDS011;67981;51.022;-2.870;2023-04-06T13:30:00;1.67;;;0.80;;
78664;SDS011;67981;51.022;-2.870;2023-04-06T13:32:26;3.85;;;1.05;;
78664;SDS011;67981;51.022;-2.870;2023-04-06T13:34:54;4.97;;;1.00;;
78664;SDS011;67981;51.022;-2.870;2023-04-06T13:37:20;7.70;;;1.02;;
78664;SDS011;67981;51.022;-2.870;2023-04-06T13:39:45;1.60;;;0.73;;
78664;SDS011;67981;51.022;-2.870;2023-04-06T13:42:11;2.72;;;1.00;;
78664;SDS011;67981;51.022;-2.870;2023-04-06T13:44:36;1.77;;;0.80;;
78664;SDS011;67981;51.022;-2.870;2023-04-06T13:47:01;1.52;;;0.70;;
78664;SDS011;67981;51.022;-2.870;2023-04-06T13:49:27;0.68;;;0.65;;
78664;SDS011;67981;51.022;-2.870;2023-04-06T13:51:52;2.22;;;0.52;;
78664;SDS011;67981;51.022;-2.870;2023-04-06T13:54:18;4.22;;;0.80;;
78664;SDS011;67981;51.022;-2.870;2023-04-06T13:56:43;1.40;;;0.60;;
78664;SDS011;67981;51.022;-2.870;2023-04-06T13:59:08;3.05;;;1.02;;
78664;SDS011;67981;51.022;-2.870;2023-04-06T14:01:34;1.60;;;0.50;;
78664;SDS011;67981;51.022;-2.870;2023-04-06T14:03:59;1.20;;;0.82;;
78664;SDS011;67981;51.022;-2.870;2023-04-06T14:06:25;4.32;;;0.60;;
78664;SDS011;67981;51.022;-2.870;2023-04-06T14:08:51;3.72;;;0.70;;
78664;SDS011;67981;51.022;-2.870;2023-04-06T14:11:16;2.28;;;0.63;;
78664;SDS011;67981;51.022;-2.870;2023-04-06T14:13:42;2.35;;;0.63;;
78664;SDS011;67981;51.022;-2.870;2023-04-06T14:16:07;1.50;;;0.68;;
78664;SDS011;67981;51.022;-2.870;2023-04-06T14:18:33;1.48;;;0.55;;
78664;SDS011;67981;51.022;-2.870;2023-04-06T14:20:59;2.90;;;0.70;;
78664;SDS011;67981;51.022;-2.870;2023-04-06T14:23:26;1.38;;;1.10;;
78664;SDS011;67981;51.022;-2.870;2023-04-06T14:26:05;1.58;;;0.60;;
78664;SDS011;67981;51.022;-2.870;2023-04-06T14:28:32;1.13;;;0.55;;
78664;SDS011;67981;51.022;-2.870;2023-04-06T14:30:59;1.35;;;0.50;;